createdAt,value
2019-04-11T00:01:36.154Z,7.55
2019-04-11T00:03:56.200Z,11.12
2019-04-11T00:06:25.714Z,7.67
2019-04-11T00:08:55.120Z,12.93
2019-04-11T00:11:24.522Z,8.28
2019-04-11T00:13:53.850Z,7.78
2019-04-11T00:16:23.552Z,6.40
2019-04-11T00:18:54.723Z,8.75
2019-04-11T00:21:24.979Z,9.30
2019-04-11T00:23:54.579Z,9.78
2019-04-11T00:26:24.446Z,9.80
2019-04-11T00:28:54.231Z,7.95
2019-04-11T00:31:25.064Z,9.28
2019-04-11T00:33:54.512Z,6.85
2019-04-11T00:36:24.202Z,8.50
2019-04-11T00:38:54.972Z,9.20
2019-04-11T00:41:24.454Z,9.63
2019-04-11T00:43:54.637Z,11.10
2019-04-11T00:46:24.555Z,8.40
2019-04-11T00:48:54.459Z,11.15
2019-04-11T00:51:23.875Z,8.55
2019-04-11T00:53:54.129Z,13.05
2019-04-11T00:56:24.170Z,8.90
2019-04-11T00:58:54.008Z,8.30
2019-04-11T01:01:23.975Z,8.23
2019-04-11T01:03:53.716Z,9.08
2019-04-11T01:06:23.182Z,9.80
2019-04-11T01:08:53.720Z,9.53
2019-04-11T01:11:23.746Z,8.70
2019-04-11T01:13:55.524Z,7.65
2019-04-11T01:16:45.145Z,8.08
2019-04-11T01:19:14.470Z,7.40
2019-04-11T01:21:44.518Z,12.50
2019-04-11T01:24:14.198Z,8.80
2019-04-11T01:26:43.535Z,10.55
2019-04-11T01:29:13.422Z,14.25
2019-04-11T01:31:44.455Z,9.88
2019-04-11T01:34:16.114Z,9.75
2019-04-11T01:36:45.574Z,9.18
2019-04-11T01:39:32.972Z,10.60
2019-04-11T01:42:02.753Z,12.85
2019-04-11T01:44:32.579Z,10.00
2019-04-11T01:47:02.543Z,10.15
2019-04-11T01:49:32.402Z,9.13
2019-04-11T01:52:04.733Z,12.93
2019-04-11T01:54:33.904Z,10.18
2019-04-11T01:57:03.549Z,8.10
2019-04-11T01:59:33.801Z,8.95
2019-04-11T02:02:11.484Z,12.75
2019-04-11T02:04:46.051Z,11.40
2019-04-11T02:07:15.505Z,10.23
2019-04-11T02:09:44.853Z,10.00
2019-04-11T02:12:14.250Z,8.25
2019-04-11T02:14:43.911Z,12.37
2019-04-11T02:17:13.312Z,10.08
2019-04-11T02:19:42.657Z,9.43
2019-04-11T02:22:19.578Z,11.63
2019-04-11T02:24:54.304Z,10.03
2019-04-11T02:27:25.977Z,8.63
2019-04-11T02:29:55.557Z,9.15
2019-04-11T02:32:28.629Z,8.48
2019-04-11T02:34:59.159Z,9.63
2019-04-11T02:37:29.372Z,9.90
2019-04-11T02:40:00.092Z,8.15
2019-04-11T02:42:30.660Z,8.90
2019-04-11T02:45:16.530Z,10.58
2019-04-11T02:47:34.692Z,8.78
2019-04-11T02:50:03.682Z,9.58
2019-04-11T02:52:33.635Z,9.08
2019-04-11T02:55:04.085Z,12.00
2019-04-11T02:57:35.893Z,11.10
2019-04-11T03:00:08.572Z,10.65
2019-04-11T03:02:39.385Z,10.50
2019-04-11T03:05:10.127Z,12.03
2019-04-11T03:07:42.181Z,11.05
2019-04-11T03:10:13.841Z,9.78
2019-04-11T03:12:43.873Z,11.85
2019-04-11T03:15:27.432Z,13.10
2019-04-11T03:17:47.891Z,10.75
2019-04-11T03:20:28.316Z,12.20
2019-04-11T03:22:54.167Z,10.05
2019-04-11T03:25:19.958Z,10.70
2019-04-11T03:27:51.601Z,10.95
2019-04-11T03:30:30.456Z,11.53
2019-04-11T03:38:18.793Z,9.65
2019-04-11T03:40:47.044Z,11.55
2019-04-11T03:43:11.114Z,12.37
2019-04-11T03:45:50.070Z,9.55
2019-04-11T03:48:12.456Z,11.12
2019-04-11T03:50:32.875Z,16.35
2019-04-11T03:53:04.061Z,12.20
2019-04-11T03:55:34.861Z,11.95
2019-04-11T03:58:06.186Z,16.50
2019-04-11T04:00:38.783Z,11.83
2019-04-11T04:03:09.269Z,12.70
2019-04-11T04:05:41.088Z,12.82
2019-04-11T04:08:10.861Z,13.50
2019-04-11T04:10:43.596Z,11.57
2019-04-11T04:13:16.991Z,11.17
2019-04-11T04:16:17.072Z,11.30
2019-04-11T04:18:38.089Z,14.18
2019-04-11T04:21:15.613Z,14.03
2019-04-11T04:23:46.885Z,13.60
2019-04-11T04:26:17.002Z,12.53
2019-04-11T04:28:47.618Z,11.35
2019-04-11T04:31:18.429Z,11.83
2019-04-11T04:33:48.340Z,11.48
2019-04-11T04:36:18.326Z,11.15
2019-04-11T04:38:48.871Z,12.30
2019-04-11T04:41:30.935Z,12.03
2019-04-11T04:43:52.787Z,11.83
2019-04-11T04:46:34.735Z,13.75
2019-04-11T04:48:55.958Z,13.75
2019-04-11T04:51:26.741Z,12.15
2019-04-11T04:53:57.772Z,14.95
2019-04-11T04:56:31.629Z,12.82
2019-04-11T04:58:58.860Z,16.00
2019-04-11T05:01:29.009Z,11.48
2019-04-11T05:03:59.339Z,11.93
2019-04-11T05:06:28.834Z,14.45
2019-04-11T05:08:59.714Z,16.20
2019-04-11T05:11:30.568Z,11.97
2019-04-11T05:14:00.910Z,12.05
2019-04-11T05:16:31.322Z,18.12
2019-04-11T05:19:01.824Z,15.93
2019-04-11T05:21:31.147Z,15.90
2019-04-11T05:24:00.482Z,15.95
2019-04-11T05:26:29.819Z,16.93
2019-04-11T05:28:59.151Z,11.33
2019-04-11T05:31:28.480Z,14.47
2019-04-11T05:33:57.832Z,17.02
2019-04-11T05:36:28.301Z,12.78
2019-04-11T05:38:58.258Z,13.03
2019-04-11T05:41:27.678Z,13.48
2019-04-11T05:44:00.765Z,15.13
2019-04-11T05:46:35.226Z,12.82
2019-04-11T05:49:03.857Z,12.28
2019-04-11T05:51:41.611Z,18.57
2019-04-11T05:54:07.653Z,13.95
2019-04-11T05:56:36.049Z,14.28
2019-04-11T05:59:24.453Z,14.78
2019-04-11T06:01:55.810Z,16.10
2019-04-11T06:04:28.553Z,16.62
2019-04-11T06:07:00.076Z,18.80
2019-04-11T06:09:36.024Z,13.95
2019-04-11T06:12:21.451Z,12.95
2019-04-11T06:15:05.884Z,14.60
2019-04-11T06:17:36.529Z,15.70
2019-04-11T06:20:12.613Z,15.15
2019-04-11T06:22:43.537Z,17.52
2019-04-11T06:25:16.452Z,14.15
2019-04-11T06:27:47.441Z,13.23
2019-04-11T06:30:21.261Z,15.85
2019-04-11T06:35:44.910Z,16.67
2019-04-11T06:38:25.033Z,14.58
2019-04-11T06:41:02.024Z,14.30
2019-04-11T06:43:36.241Z,15.05
2019-04-11T06:46:16.666Z,13.28
2019-04-11T06:48:47.740Z,15.03
2019-04-11T06:51:19.797Z,16.70
2019-04-11T06:53:56.900Z,21.90
2019-04-11T06:56:30.566Z,17.90
2019-04-11T06:59:04.398Z,16.42
2019-04-11T07:01:34.228Z,15.45
2019-04-11T07:04:05.332Z,17.42
2019-04-11T07:06:36.302Z,13.72
2019-04-11T07:09:09.564Z,15.10
2019-04-11T07:11:43.228Z,21.87
2019-04-11T07:17:13.780Z,17.00
2019-04-11T07:20:02.529Z,18.00
2019-04-11T07:22:50.948Z,16.35
2019-04-11T07:25:22.403Z,13.22
2019-04-11T07:27:59.450Z,15.63
2019-04-11T07:30:39.635Z,17.32
2019-04-11T07:33:26.953Z,17.20
2019-04-11T07:36:14.637Z,16.35
2019-04-11T07:39:03.254Z,17.40
2019-04-11T07:41:39.159Z,16.62
2019-04-11T07:44:10.950Z,15.90
2019-04-11T07:46:47.619Z,20.30
2019-04-11T07:49:18.583Z,17.45
2019-04-11T07:51:50.807Z,17.95
2019-04-11T07:54:20.555Z,16.75
2019-04-11T07:57:01.375Z,18.62
2019-04-11T07:59:39.710Z,17.82
2019-04-11T08:02:24.322Z,17.75
2019-04-11T08:05:11.134Z,18.62
2019-04-11T08:07:43.073Z,18.32
2019-04-11T08:10:14.193Z,15.80
2019-04-11T08:12:44.085Z,22.58
2019-04-11T08:15:15.484Z,20.70
2019-04-11T08:17:46.067Z,25.85
2019-04-11T08:20:33.532Z,18.75
2019-04-11T08:23:05.615Z,28.05
2019-04-11T08:25:53.669Z,17.90
2019-04-11T08:28:23.240Z,19.27
2019-04-11T08:30:55.184Z,26.33
2019-04-11T08:33:26.735Z,19.50
2019-04-11T08:35:58.321Z,15.48
2019-04-11T08:38:29.758Z,17.20
2019-04-11T08:41:01.108Z,16.95
2019-04-11T08:43:32.030Z,18.52
2019-04-11T08:46:15.104Z,18.32
2019-04-11T08:48:53.060Z,16.40
2019-04-11T08:51:25.289Z,17.30
2019-04-11T08:53:59.374Z,13.93
2019-04-11T08:56:29.576Z,17.57
2019-04-11T08:59:34.094Z,18.45
2019-04-11T09:02:04.627Z,14.50
2019-04-11T09:05:03.183Z,17.30
2019-04-11T09:07:41.426Z,14.55
2019-04-11T09:10:31.709Z,15.95
2019-04-11T09:13:09.084Z,17.25
2019-04-11T09:15:53.010Z,17.87
2019-04-11T09:18:22.360Z,15.90
2019-04-11T09:21:04.827Z,13.20
2019-04-11T09:23:35.796Z,12.50
2019-04-11T09:26:10.183Z,14.33
2019-04-11T09:28:41.834Z,15.43
2019-04-11T09:31:29.608Z,13.48
2019-04-11T09:34:19.575Z,14.03
2019-04-11T09:36:59.601Z,11.88
2019-04-11T09:39:30.976Z,12.53
2019-04-11T09:42:19.806Z,13.35
2019-04-11T09:44:49.861Z,12.37
2019-04-11T09:47:36.927Z,9.05
2019-04-11T09:50:20.441Z,10.38
2019-04-11T09:52:51.651Z,10.75
2019-04-11T09:55:29.064Z,10.32
2019-04-11T09:58:01.140Z,13.78
2019-04-11T10:00:48.454Z,9.90
2019-04-11T10:03:19.741Z,11.93
2019-04-11T10:05:51.631Z,10.10
2019-04-11T10:08:41.650Z,10.78
2019-04-11T10:11:18.646Z,10.50
2019-04-11T10:13:59.599Z,8.83
2019-04-11T10:16:31.732Z,9.15
2019-04-11T10:19:08.509Z,12.30
2019-04-11T10:21:39.635Z,13.10
2019-04-11T10:24:20.856Z,10.05
2019-04-11T10:26:52.149Z,10.15
2019-04-11T10:29:37.935Z,12.60
2019-04-11T10:32:09.061Z,12.20
2019-04-11T10:34:52.220Z,13.15
2019-04-11T10:37:21.879Z,12.37
2019-04-11T10:39:53.594Z,13.15
2019-04-11T10:42:24.597Z,10.48
2019-04-11T10:44:58.353Z,11.12
2019-04-11T10:50:17.550Z,10.88
2019-04-11T10:52:48.937Z,12.13
2019-04-11T10:55:19.855Z,11.95
2019-04-11T10:57:52.035Z,10.40
2019-04-11T11:00:39.737Z,10.45
2019-04-11T11:03:13.842Z,10.82
2019-04-11T11:05:44.774Z,11.95
2019-04-11T11:08:33.596Z,12.55
2019-04-11T11:11:17.499Z,7.67
2019-04-11T11:16:20.250Z,10.80
2019-04-11T11:19:19.484Z,16.42
2019-04-11T11:21:28.577Z,10.98
2019-04-11T11:24:11.831Z,14.25
2019-04-11T11:26:43.267Z,12.63
2019-04-11T11:29:15.771Z,12.18
2019-04-11T11:31:47.666Z,11.73
2019-04-11T11:34:38.914Z,10.80
2019-04-11T11:37:29.111Z,9.68
2019-04-11T11:40:12.028Z,9.68
2019-04-11T11:42:54.644Z,9.03
2019-04-11T11:45:41.559Z,10.60
2019-04-11T11:48:28.663Z,13.60
2019-04-11T11:50:59.654Z,9.00
2019-04-11T11:53:31.385Z,9.35
2019-04-11T11:56:02.139Z,11.90
2019-04-11T11:58:43.549Z,9.45
2019-04-11T12:01:15.692Z,10.72
2019-04-11T12:03:46.746Z,20.23
2019-04-11T12:06:20.765Z,11.40
2019-04-11T12:09:04.918Z,9.60
2019-04-11T12:11:37.967Z,10.82
2019-04-11T12:14:25.169Z,10.08
2019-04-11T12:17:01.953Z,12.50
2019-04-11T12:19:46.865Z,9.08
2019-04-11T12:22:06.214Z,9.28
2019-04-11T12:24:38.579Z,14.73
2019-04-11T12:27:16.400Z,7.92
2019-04-11T12:30:05.813Z,11.22
2019-04-11T12:32:48.718Z,10.85
2019-04-11T12:35:27.716Z,9.65
2019-04-11T12:37:59.954Z,10.45
2019-04-11T12:40:30.923Z,11.12
2019-04-11T12:43:01.917Z,9.45
2019-04-11T12:45:41.613Z,11.57
2019-04-11T12:48:12.109Z,10.65
2019-04-11T12:50:59.677Z,10.10
2019-04-11T12:53:29.100Z,10.72
2019-04-11T12:56:02.716Z,14.75
2019-04-11T12:58:33.859Z,13.95
2019-04-11T13:01:04.846Z,12.28
2019-04-11T13:03:47.576Z,9.88
2019-04-11T13:06:21.342Z,14.40
2019-04-11T13:09:01.361Z,12.53
2019-04-11T13:11:33.940Z,12.45
2019-04-11T13:14:04.910Z,9.08
2019-04-11T13:16:34.268Z,13.00
2019-04-11T13:19:05.217Z,13.10
2019-04-11T13:21:36.354Z,11.65
2019-04-11T13:24:25.703Z,10.60
2019-04-11T13:27:08.541Z,11.63
2019-04-11T13:29:45.015Z,13.50
2019-04-11T13:32:32.136Z,12.00
2019-04-11T13:35:12.173Z,9.55
2019-04-11T13:37:59.253Z,10.20
2019-04-11T13:40:45.677Z,12.23
2019-04-11T13:43:26.613Z,13.15
2019-04-11T13:46:13.859Z,11.03
2019-04-11T13:48:45.084Z,10.38
2019-04-11T13:51:31.310Z,12.73
2019-04-11T13:54:10.791Z,11.95
2019-04-11T13:56:58.514Z,13.18
2019-04-11T13:59:35.215Z,12.58
2019-04-11T14:02:16.481Z,18.37
2019-04-11T14:04:50.891Z,12.05
2019-04-11T14:07:33.934Z,14.78
2019-04-11T14:10:04.996Z,11.45
2019-04-11T14:12:34.392Z,15.05
2019-04-11T14:15:15.475Z,14.33
2019-04-11T14:18:04.953Z,11.73
2019-04-11T14:20:35.349Z,11.83
2019-04-11T14:23:07.583Z,11.18
2019-04-11T14:25:44.791Z,10.82
2019-04-11T14:28:15.763Z,12.45
2019-04-11T14:31:02.506Z,10.80
2019-04-11T14:33:33.492Z,11.33
2019-04-11T14:36:20.658Z,11.25
2019-04-11T14:38:52.286Z,11.65
2019-04-11T14:41:29.422Z,11.85
2019-04-11T14:44:00.427Z,12.00
2019-04-11T14:46:40.422Z,10.50
2019-04-11T14:49:10.529Z,13.83
2019-04-11T14:51:43.913Z,9.75
2019-04-11T14:54:17.287Z,14.70
2019-04-11T14:56:47.890Z,13.77
2019-04-11T14:59:37.882Z,11.38
2019-04-11T15:02:20.797Z,12.65
2019-04-11T15:05:08.413Z,14.37
2019-04-11T15:07:39.128Z,13.55
2019-04-11T15:10:11.455Z,11.93
2019-04-11T15:12:41.273Z,14.68
2019-04-11T15:15:24.759Z,13.18
2019-04-11T15:17:56.074Z,14.45
2019-04-11T15:20:33.924Z,14.03
2019-04-11T15:23:06.919Z,14.83
2019-04-11T15:25:38.594Z,11.00
2019-04-11T15:28:21.785Z,12.33
2019-04-11T15:31:04.571Z,14.93
2019-04-11T15:33:35.540Z,14.18
2019-04-11T15:36:06.533Z,11.60
2019-04-11T15:38:49.809Z,13.32
2019-04-11T15:41:19.441Z,12.80
2019-04-11T15:43:50.415Z,14.05
2019-04-11T15:46:24.341Z,13.28
2019-04-11T15:49:20.885Z,14.95
2019-04-11T15:51:44.094Z,12.90
2019-04-11T15:54:15.067Z,12.60
2019-04-11T15:56:48.988Z,13.65
2019-04-11T15:59:20.018Z,12.63
2019-04-11T16:02:07.152Z,11.50
2019-04-11T16:04:38.145Z,12.93
2019-04-11T16:07:12.075Z,14.70
2019-04-11T16:09:43.944Z,13.48
2019-04-11T16:12:31.452Z,15.28
2019-04-11T16:15:19.557Z,15.05
2019-04-11T16:17:59.097Z,13.68
2019-04-11T16:20:28.461Z,12.13
2019-04-11T16:23:11.505Z,14.20
2019-04-11T16:25:41.529Z,22.62
2019-04-11T16:28:21.698Z,14.07
2019-04-11T16:30:52.906Z,13.15
2019-04-11T16:33:26.301Z,12.70
2019-04-11T16:36:04.293Z,19.48
2019-04-11T16:38:40.670Z,12.95
2019-04-11T16:41:27.846Z,14.55
2019-04-11T16:43:58.824Z,15.28
2019-04-11T16:46:41.818Z,17.00
2019-04-11T16:49:11.405Z,15.13
2019-04-11T16:51:40.813Z,14.03
2019-04-11T16:54:10.354Z,13.95
2019-04-11T16:56:41.722Z,12.10
2019-04-11T16:59:10.701Z,19.82
2019-04-11T17:01:40.033Z,11.60
2019-04-11T17:04:10.562Z,14.63
2019-04-11T17:06:57.503Z,14.05
2019-04-11T17:09:37.596Z,13.40
2019-04-11T17:12:07.191Z,12.55
2019-04-11T17:14:36.548Z,15.88
2019-04-11T17:17:14.960Z,14.18
2019-04-11T17:19:37.173Z,11.85
2019-04-11T17:22:08.222Z,18.10
2019-04-11T17:24:37.585Z,14.65
2019-04-11T17:27:07.192Z,15.83
2019-04-11T17:29:36.763Z,12.35
2019-04-11T17:32:06.107Z,15.60
2019-04-11T17:34:35.438Z,15.40
2019-04-11T17:37:04.872Z,11.97
2019-04-11T17:39:36.810Z,13.50
2019-04-11T17:42:08.270Z,13.78
2019-04-11T17:44:37.597Z,12.18
2019-04-11T17:47:06.950Z,15.53
2019-04-11T17:49:36.282Z,14.23
2019-04-11T17:52:07.198Z,15.05
2019-04-11T17:54:36.533Z,12.03
2019-04-11T17:57:05.872Z,14.90
2019-04-11T17:59:35.219Z,16.50
2019-04-11T18:02:05.724Z,14.80
2019-04-11T18:04:35.059Z,16.57
2019-04-11T18:07:04.724Z,18.30
2019-04-11T18:09:35.036Z,15.83
2019-04-11T18:12:04.433Z,14.35
2019-04-11T18:14:33.789Z,15.58
2019-04-11T18:17:04.566Z,14.63
2019-04-11T18:19:36.255Z,12.63
2019-04-11T18:22:08.292Z,12.10
2019-04-11T18:24:37.016Z,11.65
2019-04-11T18:27:06.591Z,12.45
2019-04-11T18:29:35.925Z,11.68
2019-04-11T18:32:05.412Z,12.15
2019-04-11T18:34:34.813Z,15.15
2019-04-11T18:37:04.518Z,14.80
2019-04-11T18:39:36.044Z,13.50
2019-04-11T18:42:05.731Z,13.03
2019-04-11T18:44:35.066Z,11.18
2019-04-11T18:47:04.463Z,14.55
2019-04-11T18:49:33.810Z,11.97
2019-04-11T18:52:03.120Z,14.35
2019-04-11T18:54:32.724Z,12.95
2019-04-11T18:57:02.063Z,12.15
2019-04-11T18:59:33.807Z,11.35
2019-04-11T19:02:02.464Z,12.43
2019-04-11T19:04:32.977Z,11.22
2019-04-11T19:07:04.811Z,12.50
2019-04-11T19:09:34.965Z,14.10
2019-04-11T19:12:06.226Z,12.20
2019-04-11T19:14:35.626Z,18.32
2019-04-11T19:17:04.970Z,12.03
2019-04-11T19:19:34.321Z,12.00
2019-04-11T19:22:04.119Z,12.20
2019-04-11T19:24:35.660Z,11.35
2019-04-11T19:27:04.686Z,11.50
2019-04-11T19:29:34.137Z,10.53
2019-04-11T19:32:03.554Z,10.58
2019-04-11T19:34:32.877Z,12.15
2019-04-11T19:37:03.759Z,11.45
2019-04-11T19:39:33.559Z,11.50
2019-04-11T19:42:08.819Z,12.93
2019-04-11T19:44:35.218Z,12.13
2019-04-11T19:47:04.628Z,11.05
2019-04-11T19:49:33.960Z,12.28
2019-04-11T19:52:03.299Z,13.50
2019-04-11T19:54:34.035Z,9.95
2019-04-11T19:57:06.942Z,14.25
2019-04-11T19:59:36.282Z,11.27
2019-04-11T20:02:05.687Z,12.10
2019-04-11T20:04:35.126Z,12.95
2019-04-11T20:07:04.654Z,13.53
2019-04-11T20:09:33.981Z,12.93
2019-04-11T20:12:03.324Z,14.53
2019-04-11T20:14:34.882Z,11.22
2019-04-11T20:17:04.027Z,12.37
2019-04-11T20:19:33.421Z,10.85
2019-04-11T20:22:02.906Z,11.12
2019-04-11T20:24:32.249Z,11.38
2019-04-11T20:27:01.595Z,16.62
2019-04-11T20:29:32.387Z,10.32
2019-04-11T20:32:01.725Z,12.88
2019-04-11T20:34:31.054Z,12.23
2019-04-11T20:37:00.464Z,12.53
2019-04-11T20:39:30.096Z,12.55
2019-04-11T20:41:59.436Z,10.68
2019-04-11T20:44:28.772Z,16.23
2019-04-11T20:47:00.407Z,11.33
2019-04-11T20:49:29.461Z,11.28
2019-04-11T20:51:59.075Z,13.32
2019-04-11T20:54:28.472Z,11.68
2019-04-11T20:56:58.075Z,14.03
2019-04-11T20:59:34.341Z,11.28
2019-04-11T21:01:58.773Z,11.22
2019-04-11T21:04:28.087Z,13.03
2019-04-11T21:06:57.442Z,10.32
2019-04-11T21:09:27.944Z,11.22
2019-04-11T21:11:57.281Z,11.88
2019-04-11T21:14:26.637Z,12.78
2019-04-11T21:16:55.979Z,10.75
2019-04-11T21:19:25.710Z,12.13
2019-04-11T21:21:55.028Z,10.25
2019-04-11T21:24:24.364Z,10.40
2019-04-11T21:26:53.996Z,11.90
2019-04-11T21:29:25.628Z,10.70
2019-04-11T21:31:54.386Z,11.00
2019-04-11T21:34:23.717Z,12.10
2019-04-11T21:36:53.052Z,9.93
2019-04-11T21:39:22.457Z,13.00
2019-04-11T21:41:51.788Z,13.20
2019-04-11T21:44:21.137Z,12.07
2019-04-11T21:46:50.753Z,9.13
2019-04-11T21:49:20.112Z,13.38
2019-04-11T21:51:49.433Z,11.38
2019-04-11T21:54:18.770Z,12.60
2019-04-11T21:56:49.600Z,10.05
2019-04-11T21:59:20.384Z,10.80
2019-04-11T22:01:53.863Z,10.20
2019-04-11T22:04:21.696Z,9.85
2019-04-11T22:06:51.139Z,11.48
2019-04-11T22:09:20.832Z,12.35
2019-04-11T22:11:50.223Z,9.88
2019-04-11T22:14:19.550Z,15.05
2019-04-11T22:16:48.882Z,12.88
2019-04-11T22:19:18.474Z,10.25
2019-04-11T22:21:47.837Z,11.12
2019-04-11T22:24:17.167Z,9.88
2019-04-11T22:26:50.135Z,10.53
2019-04-11T22:29:17.525Z,12.50
2019-04-11T22:31:46.877Z,11.00
2019-04-11T22:34:17.847Z,10.18
2019-04-11T22:36:48.151Z,10.95
2019-04-11T22:39:18.259Z,10.93
2019-04-11T22:41:47.602Z,15.45
2019-04-11T22:44:16.931Z,10.48
2019-04-11T22:46:46.579Z,10.48
2019-04-11T22:49:15.907Z,13.83
2019-04-11T22:51:45.246Z,15.55
2019-04-11T22:54:14.581Z,10.25
2019-04-11T22:56:44.879Z,11.70
2019-04-11T22:59:14.603Z,10.88
2019-04-11T23:01:46.727Z,12.05
2019-04-11T23:04:17.148Z,9.90
2019-04-11T23:06:47.249Z,12.90
2019-04-11T23:09:19.509Z,8.63
2019-04-11T23:11:48.204Z,9.85
2019-04-11T23:14:17.546Z,10.40
2019-04-11T23:16:46.871Z,13.32
2019-04-11T23:19:16.203Z,14.73
2019-04-11T23:21:45.826Z,12.23
2019-04-11T23:24:15.150Z,11.15
2019-04-11T23:26:44.496Z,11.40
2019-04-11T23:29:15.963Z,10.88
2019-04-11T23:31:44.849Z,11.30
2019-04-11T23:34:14.179Z,10.98
2019-04-11T23:36:43.516Z,12.40
2019-04-11T23:39:12.849Z,12.35
2019-04-11T23:41:42.574Z,10.82
2019-04-11T23:44:11.901Z,12.33
2019-04-11T23:46:42.225Z,15.03
2019-04-11T23:49:11.557Z,12.13
2019-04-11T23:51:40.892Z,12.37
2019-04-11T23:54:10.236Z,11.65
2019-04-11T23:56:39.572Z,14.07
2019-04-11T23:59:09.232Z,12.82
